createdAt,value
2022-11-19T00:01:52.045Z,99.90
2022-11-19T00:03:55.431Z,99.90
2022-11-19T00:06:08.184Z,99.90
2022-11-19T00:08:13.267Z,99.90
2022-11-19T00:10:16.385Z,99.90
2022-11-19T00:12:37.354Z,99.90
2022-11-19T00:14:39.989Z,99.90
2022-11-19T00:16:44.014Z,99.90
2022-11-19T00:18:46.659Z,99.90
2022-11-19T00:20:51.009Z,99.90
2022-11-19T00:22:55.510Z,99.90
2022-11-19T00:24:58.138Z,99.90
2022-11-19T00:27:00.676Z,99.90
2022-11-19T00:29:03.693Z,99.90
2022-11-19T00:31:10.074Z,99.90
2022-11-19T00:33:12.590Z,99.90
2022-11-19T00:35:15.429Z,99.90
2022-11-19T00:37:18.086Z,99.90
2022-11-19T00:39:21.060Z,99.90
2022-11-19T00:41:24.062Z,99.90
2022-11-19T00:43:45.695Z,99.90
2022-11-19T00:45:49.095Z,99.90
2022-11-19T00:48:21.292Z,99.90
2022-11-19T00:50:23.824Z,99.90
2022-11-19T00:52:26.391Z,99.90
2022-11-19T00:54:29.011Z,99.90
2022-11-19T00:56:31.587Z,99.90
2022-11-19T00:58:41.152Z,99.90
2022-11-19T01:00:48.989Z,99.90
2022-11-19T01:02:51.584Z,99.90
2022-11-19T01:04:54.184Z,99.90
2022-11-19T01:06:58.061Z,99.90
2022-11-19T01:09:02.792Z,99.90
2022-11-19T01:11:13.163Z,99.90
2022-11-19T01:13:34.013Z,99.90
2022-11-19T01:15:36.603Z,99.90
2022-11-19T01:17:39.136Z,99.90
2022-11-19T01:19:41.793Z,99.90
2022-11-19T01:21:44.361Z,99.90
2022-11-19T01:23:47.691Z,99.90
2022-11-19T01:25:50.451Z,99.90
2022-11-19T01:27:53.013Z,99.90
2022-11-19T01:29:55.528Z,99.90
2022-11-19T01:31:58.070Z,99.90
2022-11-19T01:34:00.710Z,99.90
2022-11-19T01:36:07.862Z,99.90
2022-11-19T01:38:10.431Z,99.90
2022-11-19T01:40:14.004Z,99.90
2022-11-19T01:42:47.155Z,99.90
2022-11-19T01:45:06.913Z,99.90
2022-11-19T01:47:09.666Z,99.90
2022-11-19T01:49:20.903Z,99.90
2022-11-19T01:51:29.733Z,99.90
2022-11-19T01:53:34.597Z,99.90
2022-11-19T01:55:38.847Z,99.90
2022-11-19T01:57:41.608Z,99.90
2022-11-19T01:59:47.304Z,99.90
2022-11-19T02:01:49.916Z,99.90
2022-11-19T02:03:52.915Z,99.90
2022-11-19T02:05:56.289Z,99.90
2022-11-19T02:07:59.453Z,99.90
2022-11-19T02:10:05.568Z,99.90
2022-11-19T02:12:48.606Z,99.90
2022-11-19T02:15:23.981Z,99.90
2022-11-19T02:18:00.724Z,99.90
2022-11-19T02:21:01.477Z,99.90
2022-11-19T02:23:58.397Z,99.90
2022-11-19T02:26:25.756Z,99.90
2022-11-19T02:28:37.186Z,99.90
2022-11-19T02:30:44.239Z,99.90
2022-11-19T02:33:00.817Z,99.90
2022-11-19T02:35:33.290Z,99.90
2022-11-19T02:37:48.966Z,99.90
2022-11-19T02:39:59.842Z,99.90
2022-11-19T02:42:14.222Z,99.90
2022-11-19T02:44:49.280Z,99.90
2022-11-19T02:46:54.004Z,99.90
2022-11-19T02:48:56.710Z,99.90
2022-11-19T02:51:03.198Z,99.90
2022-11-19T02:53:06.068Z,99.90
2022-11-19T02:55:15.297Z,99.90
2022-11-19T02:57:17.873Z,99.90
2022-11-19T02:59:47.857Z,99.90
2022-11-19T03:02:09.918Z,99.90
2022-11-19T03:04:42.428Z,99.90
2022-11-19T03:06:45.025Z,99.90
2022-11-19T03:08:48.159Z,99.90
2022-11-19T03:11:13.768Z,99.90
2022-11-19T03:13:42.859Z,99.90
2022-11-19T03:16:07.824Z,99.90
2022-11-19T03:18:23.500Z,99.90
2022-11-19T03:21:03.999Z,99.90
2022-11-19T03:23:29.724Z,99.90
2022-11-19T03:25:45.608Z,99.90
2022-11-19T03:27:53.068Z,99.90
2022-11-19T03:30:00.315Z,99.90
2022-11-19T03:32:19.770Z,99.90
2022-11-19T03:34:26.425Z,99.90
2022-11-19T03:36:36.831Z,99.90
2022-11-19T03:38:49.467Z,99.90
2022-11-19T03:40:55.335Z,99.90
2022-11-19T03:42:59.909Z,99.90
2022-11-19T03:45:14.019Z,99.90
2022-11-19T03:47:25.953Z,99.90
2022-11-19T03:49:35.003Z,99.90
2022-11-19T03:51:54.322Z,99.90
2022-11-19T03:53:57.064Z,99.90
2022-11-19T03:56:04.577Z,99.90
2022-11-19T03:58:09.968Z,99.90
2022-11-19T04:00:13.071Z,99.90
2022-11-19T04:02:16.537Z,99.90
2022-11-19T04:04:37.424Z,99.90
2022-11-19T04:06:40.096Z,99.90
2022-11-19T04:08:42.650Z,99.90
2022-11-19T04:10:45.225Z,99.90
2022-11-19T04:12:47.922Z,99.90
2022-11-19T04:14:51.159Z,99.90
2022-11-19T04:16:53.695Z,99.90
2022-11-19T04:18:56.254Z,99.90
2022-11-19T04:20:58.804Z,99.90
2022-11-19T04:23:01.378Z,99.90
2022-11-19T04:25:04.422Z,99.90
2022-11-19T04:27:07.041Z,99.90
2022-11-19T04:29:10.985Z,99.90
2022-11-19T04:31:17.651Z,99.90
2022-11-19T04:33:20.730Z,99.90
2022-11-19T04:35:23.284Z,99.90
2022-11-19T04:37:25.829Z,99.90
2022-11-19T04:39:28.597Z,99.90
2022-11-19T04:41:31.109Z,99.90
2022-11-19T04:43:39.797Z,99.90
2022-11-19T04:45:42.373Z,99.90
2022-11-19T04:47:44.926Z,99.90
2022-11-19T04:49:47.490Z,99.90
2022-11-19T04:51:50.001Z,99.90
2022-11-19T04:53:53.124Z,99.90
2022-11-19T04:55:58.836Z,99.90
2022-11-19T04:58:01.634Z,99.90
2022-11-19T05:00:06.741Z,99.90
2022-11-19T05:02:09.415Z,99.90
2022-11-19T05:04:12.210Z,99.90
2022-11-19T05:06:14.757Z,99.90
2022-11-19T05:08:17.304Z,99.90
2022-11-19T05:10:19.968Z,99.90
2022-11-19T05:12:22.534Z,99.90
2022-11-19T05:14:30.092Z,99.90
2022-11-19T05:16:33.177Z,99.90
2022-11-19T05:18:35.788Z,99.90
2022-11-19T05:20:38.919Z,99.90
2022-11-19T05:22:41.459Z,99.90
2022-11-19T05:24:43.976Z,99.90
2022-11-19T05:26:47.769Z,99.90
2022-11-19T05:28:50.335Z,99.90
2022-11-19T05:30:56.244Z,99.90
2022-11-19T05:32:58.765Z,99.90
2022-11-19T05:35:01.301Z,99.90
2022-11-19T05:37:03.872Z,99.90
2022-11-19T05:39:06.441Z,99.90
2022-11-19T05:41:09.021Z,99.90
2022-11-19T05:43:11.831Z,99.90
2022-11-19T05:45:14.493Z,99.90
2022-11-19T05:47:17.569Z,99.90
2022-11-19T05:49:20.417Z,99.90
2022-11-19T05:51:23.208Z,99.90
2022-11-19T05:53:26.736Z,99.90
2022-11-19T05:55:29.369Z,99.90
2022-11-19T05:57:31.927Z,99.90
2022-11-19T05:59:34.580Z,99.90
2022-11-19T06:01:37.136Z,99.90
2022-11-19T06:03:41.755Z,99.90
2022-11-19T06:05:44.261Z,99.90
2022-11-19T06:07:46.853Z,99.90
2022-11-19T06:09:49.448Z,99.90
2022-11-19T06:11:52.033Z,99.90
2022-11-19T06:13:54.583Z,99.90
2022-11-19T06:15:57.124Z,99.90
2022-11-19T06:18:21.288Z,99.90
2022-11-19T06:20:23.957Z,99.90
2022-11-19T06:22:26.580Z,99.90
2022-11-19T06:24:30.008Z,99.90
2022-11-19T06:26:32.580Z,99.90
2022-11-19T06:28:35.561Z,99.90
2022-11-19T06:30:38.160Z,99.90
2022-11-19T06:32:40.982Z,99.90
2022-11-19T06:34:46.869Z,99.90
2022-11-19T06:36:50.828Z,99.90
2022-11-19T06:38:53.577Z,99.90
2022-11-19T06:40:56.092Z,99.90
2022-11-19T06:42:58.679Z,99.90
2022-11-19T06:45:01.243Z,99.90
2022-11-19T06:47:03.836Z,99.90
2022-11-19T06:49:07.208Z,99.90
2022-11-19T06:51:09.787Z,99.90
2022-11-19T06:53:12.794Z,99.90
2022-11-19T06:55:34.458Z,99.90
2022-11-19T06:57:37.113Z,99.90
2022-11-19T06:59:39.622Z,99.90
2022-11-19T07:01:42.236Z,99.90
2022-11-19T07:03:44.815Z,99.90
2022-11-19T07:05:49.175Z,99.90
2022-11-19T07:07:51.735Z,99.90
2022-11-19T07:09:54.299Z,99.90
2022-11-19T07:11:56.953Z,99.90
2022-11-19T07:14:00.100Z,99.90
2022-11-19T07:16:03.548Z,99.90
2022-11-19T07:18:06.164Z,99.90
2022-11-19T07:20:09.654Z,99.90
2022-11-19T07:22:12.337Z,99.90
2022-11-19T07:24:18.022Z,99.90
2022-11-19T07:26:20.778Z,99.90
2022-11-19T07:28:23.345Z,99.90
2022-11-19T07:30:25.873Z,99.90
2022-11-19T07:32:28.387Z,99.90
2022-11-19T07:34:30.971Z,99.90
2022-11-19T07:36:33.518Z,99.90
2022-11-19T07:38:38.066Z,99.90
2022-11-19T07:40:40.588Z,99.90
2022-11-19T07:42:53.175Z,99.90
2022-11-19T07:44:55.756Z,99.90
2022-11-19T07:46:58.776Z,99.90
2022-11-19T07:49:01.628Z,99.90
2022-11-19T07:51:04.218Z,99.90
2022-11-19T07:53:07.755Z,99.90
2022-11-19T07:55:10.859Z,99.90
2022-11-19T07:57:13.880Z,99.90
2022-11-19T07:59:16.504Z,99.90
2022-11-19T08:01:23.183Z,99.90
2022-11-19T08:03:25.773Z,99.90
2022-11-19T08:05:28.735Z,99.90
2022-11-19T08:07:31.425Z,99.90
2022-11-19T08:09:34.246Z,99.90
2022-11-19T08:11:36.921Z,99.90
2022-11-19T08:13:39.976Z,99.90
2022-11-19T08:15:42.476Z,99.90
2022-11-19T08:18:03.280Z,99.90
2022-11-19T08:20:06.596Z,99.90
2022-11-19T08:22:11.711Z,99.90
2022-11-19T08:24:16.591Z,99.90
2022-11-19T08:26:19.139Z,99.90
2022-11-19T08:28:21.881Z,99.90
2022-11-19T08:30:24.537Z,99.90
2022-11-19T08:32:27.109Z,99.90
2022-11-19T08:34:32.199Z,99.90
2022-11-19T08:36:34.769Z,99.90
2022-11-19T08:38:38.844Z,99.90
2022-11-19T08:40:41.690Z,99.90
2022-11-19T08:43:02.253Z,99.90
2022-11-19T08:45:05.985Z,99.90
2022-11-19T08:47:08.827Z,99.90
2022-11-19T08:49:12.554Z,99.90
2022-11-19T08:51:21.105Z,99.90
2022-11-19T08:53:23.685Z,99.90
2022-11-19T08:55:27.943Z,99.90
2022-11-19T08:57:30.744Z,99.90
2022-11-19T08:59:33.325Z,99.90
2022-11-19T09:01:36.045Z,99.90
2022-11-19T09:03:38.998Z,99.90
2022-11-19T09:05:41.600Z,99.90
2022-11-19T09:07:44.083Z,99.90
2022-11-19T09:09:46.658Z,99.90
2022-11-19T09:11:49.307Z,99.90
2022-11-19T09:13:51.996Z,99.90
2022-11-19T09:15:54.573Z,99.90
2022-11-19T09:17:57.159Z,99.90
2022-11-19T09:19:59.730Z,99.90
2022-11-19T09:22:02.296Z,99.90
2022-11-19T09:24:05.349Z,99.90
2022-11-19T09:26:12.181Z,99.90
2022-11-19T09:28:14.665Z,99.90
2022-11-19T09:30:17.423Z,99.90
2022-11-19T09:32:25.204Z,99.90
2022-11-19T09:34:28.189Z,99.90
2022-11-19T09:36:30.725Z,99.90
2022-11-19T09:38:35.223Z,99.90
2022-11-19T09:40:37.898Z,99.90
2022-11-19T09:42:50.003Z,99.90
2022-11-19T09:45:11.596Z,99.90
2022-11-19T09:47:35.339Z,99.90
2022-11-19T09:49:46.137Z,99.90
2022-11-19T09:51:58.637Z,99.90
2022-11-19T09:54:08.488Z,99.90
2022-11-19T09:56:18.527Z,99.90
2022-11-19T09:58:40.036Z,99.90
2022-11-19T10:00:45.170Z,99.90
2022-11-19T10:02:47.931Z,99.90
2022-11-19T10:04:52.149Z,99.90
2022-11-19T10:07:11.417Z,99.90
2022-11-19T10:09:33.518Z,99.90
2022-11-19T10:12:14.718Z,99.90
2022-11-19T10:14:45.297Z,99.90
2022-11-19T10:17:01.110Z,99.90
2022-11-19T10:19:47.359Z,99.90
2022-11-19T10:22:59.687Z,99.90
2022-11-19T10:25:38.776Z,99.90
2022-11-19T10:27:49.532Z,99.90
2022-11-19T10:29:56.773Z,99.90
2022-11-19T10:32:43.193Z,99.90
2022-11-19T10:34:46.505Z,99.90
2022-11-19T10:36:57.639Z,99.90
2022-11-19T10:39:07.743Z,99.90
2022-11-19T10:41:15.586Z,99.90
2022-11-19T10:43:39.217Z,99.90
2022-11-19T10:45:41.785Z,99.90
2022-11-19T10:48:08.928Z,99.90
2022-11-19T10:50:25.426Z,99.90
2022-11-19T10:52:40.286Z,99.90
2022-11-19T10:54:43.439Z,99.90
2022-11-19T10:56:46.029Z,99.90
2022-11-19T10:59:01.692Z,99.90
2022-11-19T11:01:28.761Z,99.90
2022-11-19T11:03:44.083Z,99.90
2022-11-19T11:06:05.068Z,99.90
2022-11-19T11:08:11.788Z,99.90
2022-11-19T11:10:44.304Z,99.90
2022-11-19T11:13:05.743Z,99.90
2022-11-19T11:15:21.757Z,99.90
2022-11-19T11:17:28.190Z,99.90
2022-11-19T11:19:32.326Z,99.90
2022-11-19T11:21:39.673Z,99.90
2022-11-19T11:23:54.159Z,99.90
2022-11-19T11:26:12.361Z,99.90
2022-11-19T11:28:19.871Z,99.90
2022-11-19T11:30:22.467Z,99.90
2022-11-19T11:32:30.906Z,99.90
2022-11-19T11:34:41.213Z,99.90
2022-11-19T11:36:46.063Z,99.90
2022-11-19T11:38:51.889Z,99.90
2022-11-19T11:43:35.164Z,99.90
2022-11-19T11:45:38.275Z,99.90
2022-11-19T11:47:40.852Z,99.90
2022-11-19T11:49:47.016Z,99.90
2022-11-19T11:52:19.045Z,99.90
2022-11-19T11:54:22.094Z,99.90
2022-11-19T11:56:24.613Z,99.90
2022-11-19T11:58:33.408Z,99.90
2022-11-19T12:00:44.953Z,99.90
2022-11-19T12:03:19.025Z,99.90
2022-11-19T12:05:21.591Z,99.90
2022-11-19T12:07:49.985Z,99.90
2022-11-19T12:10:25.149Z,99.90
2022-11-19T12:12:57.530Z,99.90
2022-11-19T12:15:08.917Z,99.90
2022-11-19T12:17:22.463Z,99.90
2022-11-19T12:19:41.331Z,99.90
2022-11-19T12:21:55.834Z,99.90
2022-11-19T12:24:47.104Z,99.90
2022-11-19T12:27:20.127Z,99.90
2022-11-19T12:29:51.021Z,99.90
2022-11-19T12:32:27.025Z,99.90
2022-11-19T12:35:10.436Z,99.90
2022-11-19T12:38:09.791Z,99.90
2022-11-19T12:40:38.472Z,99.90
2022-11-19T12:43:46.407Z,99.90
2022-11-19T12:46:24.799Z,99.90
2022-11-19T12:48:43.785Z,99.90
2022-11-19T12:51:27.521Z,99.90
2022-11-19T12:53:35.754Z,99.90
2022-11-19T12:56:07.644Z,99.90
2022-11-19T12:58:34.213Z,99.90
2022-11-19T13:00:42.682Z,99.90
2022-11-19T13:02:56.638Z,99.90
2022-11-19T13:05:12.357Z,99.90
2022-11-19T13:07:56.837Z,99.70
2022-11-19T13:10:06.658Z,99.20
2022-11-19T13:12:15.188Z,98.90
2022-11-19T13:14:46.164Z,99.00
2022-11-19T13:16:53.695Z,99.30
2022-11-19T13:19:22.178Z,99.10
2022-11-19T13:21:43.169Z,99.10
2022-11-19T13:23:48.562Z,98.50
2022-11-19T13:26:21.146Z,98.30
2022-11-19T13:28:51.235Z,97.20
2022-11-19T13:30:59.578Z,97.30
2022-11-19T13:33:24.045Z,97.30
2022-11-19T13:35:49.976Z,97.20
2022-11-19T13:38:34.948Z,97.10
2022-11-19T13:40:45.345Z,97.60
2022-11-19T13:45:30.417Z,97.10
2022-11-19T13:47:42.944Z,96.90
2022-11-19T13:49:53.416Z,96.90
2022-11-19T13:52:25.145Z,96.70
2022-11-19T13:54:37.138Z,96.60
2022-11-19T13:56:47.142Z,96.60
2022-11-19T13:58:56.401Z,96.90
2022-11-19T14:01:30.954Z,96.90
2022-11-19T14:03:52.019Z,96.80
2022-11-19T14:06:38.567Z,96.60
2022-11-19T14:09:12.730Z,96.60
2022-11-19T14:11:37.669Z,96.60
2022-11-19T14:14:38.660Z,96.50
2022-11-19T14:17:28.624Z,96.60
2022-11-19T14:20:12.928Z,96.60
2022-11-19T14:23:14.415Z,96.80
2022-11-19T14:26:06.294Z,96.90
2022-11-19T14:28:45.374Z,96.90
2022-11-19T14:31:03.326Z,97.00
2022-11-19T14:34:02.406Z,97.40
2022-11-19T14:36:17.155Z,97.40
2022-11-19T14:38:19.677Z,97.40
2022-11-19T14:40:31.930Z,97.40
2022-11-19T14:42:54.523Z,97.30
2022-11-19T14:45:05.795Z,97.20
2022-11-19T14:47:38.129Z,97.30
2022-11-19T14:51:00.531Z,97.40
2022-11-19T14:53:03.337Z,97.60
2022-11-19T14:55:17.777Z,97.70
2022-11-19T14:57:41.774Z,97.80
2022-11-19T14:59:52.611Z,98.00
2022-11-19T15:02:47.338Z,98.10
2022-11-19T15:05:08.490Z,98.20
2022-11-19T15:07:32.809Z,98.30
2022-11-19T15:10:17.633Z,98.40
2022-11-19T15:13:23.279Z,98.50
2022-11-19T15:15:37.687Z,98.50
2022-11-19T15:17:40.252Z,98.70
2022-11-19T15:20:08.212Z,98.90
2022-11-19T15:22:37.489Z,99.20
2022-11-19T15:25:18.656Z,99.20
2022-11-19T15:28:12.929Z,99.20
2022-11-19T15:30:23.383Z,99.30
2022-11-19T15:32:59.561Z,99.20
2022-11-19T15:35:59.312Z,99.40
2022-11-19T15:38:16.981Z,99.40
2022-11-19T15:40:29.172Z,99.40
2022-11-19T15:42:42.680Z,99.50
2022-11-19T15:44:58.108Z,99.60
2022-11-19T15:47:04.887Z,99.70
2022-11-19T15:49:23.889Z,99.70
2022-11-19T15:51:26.579Z,99.70
2022-11-19T15:53:29.549Z,99.90
2022-11-19T15:55:32.478Z,99.90
2022-11-19T15:57:41.763Z,99.90
2022-11-19T15:59:49.716Z,99.90
2022-11-19T16:02:04.492Z,99.90
2022-11-19T16:04:13.656Z,99.90
2022-11-19T16:06:23.906Z,99.90
2022-11-19T16:08:27.515Z,99.90
2022-11-19T16:10:41.067Z,99.90
2022-11-19T16:13:20.625Z,99.90
2022-11-19T16:15:45.031Z,99.90
2022-11-19T16:17:48.672Z,99.90
2022-11-19T16:20:10.170Z,99.90
2022-11-19T16:22:13.262Z,99.90
2022-11-19T16:24:37.820Z,99.90
2022-11-19T16:26:45.688Z,99.90
2022-11-19T16:28:48.269Z,99.90
2022-11-19T16:30:54.344Z,99.90
2022-11-19T16:32:59.122Z,99.90
2022-11-19T16:35:20.747Z,99.90
2022-11-19T16:37:23.457Z,99.90
2022-11-19T16:39:28.922Z,99.90
2022-11-19T16:41:53.921Z,99.90
2022-11-19T16:43:57.178Z,99.90
2022-11-19T16:46:00.799Z,99.90
2022-11-19T16:48:04.199Z,99.90
2022-11-19T16:50:27.873Z,99.90
2022-11-19T16:52:33.413Z,99.90
2022-11-19T16:54:49.703Z,99.90
2022-11-19T16:56:52.309Z,99.90
2022-11-19T16:59:02.524Z,99.90
2022-11-19T17:01:05.169Z,99.90
2022-11-19T17:03:21.863Z,99.90
2022-11-19T17:05:30.465Z,99.90
2022-11-19T17:07:40.128Z,99.90
2022-11-19T17:09:47.555Z,99.90
2022-11-19T17:12:14.710Z,99.90
2022-11-19T17:14:35.092Z,99.90
2022-11-19T17:16:37.619Z,99.90
2022-11-19T17:18:42.603Z,99.90
2022-11-19T17:20:45.065Z,99.90
2022-11-19T17:22:47.605Z,99.90
2022-11-19T17:24:51.072Z,99.90
2022-11-19T17:26:54.903Z,99.90
2022-11-19T17:29:10.123Z,99.90
2022-11-19T17:31:27.565Z,99.90
2022-11-19T17:33:35.462Z,99.90
2022-11-19T17:35:41.994Z,99.90
2022-11-19T17:37:44.575Z,99.90
2022-11-19T17:39:47.206Z,99.90
2022-11-19T17:42:08.237Z,99.90
2022-11-19T17:44:39.214Z,99.90
2022-11-19T17:46:41.795Z,99.90
2022-11-19T17:48:46.433Z,99.90
2022-11-19T17:50:51.677Z,99.90
2022-11-19T17:52:54.292Z,99.90
2022-11-19T17:55:18.232Z,99.90
2022-11-19T17:57:21.097Z,99.90
2022-11-19T17:59:23.779Z,99.90
2022-11-19T18:01:26.352Z,99.90
2022-11-19T18:03:29.086Z,99.90
2022-11-19T18:05:37.028Z,99.90
2022-11-19T18:07:40.843Z,99.90
2022-11-19T18:09:43.874Z,99.90
2022-11-19T18:11:46.420Z,99.90
2022-11-19T18:13:53.051Z,99.90
2022-11-19T18:15:55.803Z,99.90
2022-11-19T18:17:58.336Z,99.90
2022-11-19T18:20:00.942Z,99.90
2022-11-19T18:22:04.058Z,99.90
2022-11-19T18:24:09.876Z,99.90
2022-11-19T18:26:18.539Z,99.90
2022-11-19T18:28:21.143Z,99.90
2022-11-19T18:30:24.001Z,99.90
2022-11-19T18:32:42.409Z,99.90
2022-11-19T18:34:46.113Z,99.90
2022-11-19T18:36:49.230Z,99.90
2022-11-19T18:38:52.920Z,99.90
2022-11-19T18:40:55.524Z,99.90
2022-11-19T18:43:16.896Z,99.90
2022-11-19T18:45:19.437Z,99.90
2022-11-19T18:47:24.550Z,99.90
2022-11-19T18:49:27.526Z,99.90
2022-11-19T18:51:31.427Z,99.90
2022-11-19T18:53:34.028Z,99.90
2022-11-19T18:55:38.305Z,99.90
2022-11-19T18:57:40.957Z,99.90
2022-11-19T18:59:43.560Z,99.90
2022-11-19T19:01:46.198Z,99.90
2022-11-19T19:03:52.399Z,99.90
2022-11-19T19:06:13.427Z,99.90
2022-11-19T19:08:19.379Z,99.90
2022-11-19T19:10:21.933Z,99.90
2022-11-19T19:12:24.752Z,99.90
2022-11-19T19:14:27.505Z,99.90
2022-11-19T19:16:34.859Z,99.90
2022-11-19T19:18:37.685Z,99.90
2022-11-19T19:20:40.207Z,99.90
2022-11-19T19:22:42.782Z,99.90
2022-11-19T19:24:45.419Z,99.90
2022-11-19T19:26:47.932Z,99.90
2022-11-19T19:28:53.856Z,99.90
2022-11-19T19:30:59.341Z,99.90
2022-11-19T19:33:01.909Z,99.90
2022-11-19T19:35:04.835Z,99.90
2022-11-19T19:37:07.451Z,99.90
2022-11-19T19:39:10.004Z,99.90
2022-11-19T19:41:21.057Z,99.90
2022-11-19T19:43:23.620Z,99.90
2022-11-19T19:45:34.731Z,99.90
2022-11-19T19:47:37.372Z,99.90
2022-11-19T19:49:40.009Z,99.90
2022-11-19T19:51:52.711Z,99.90
2022-11-19T19:53:55.798Z,99.90
2022-11-19T19:56:46.754Z,99.90
2022-11-19T19:58:50.973Z,99.90
2022-11-19T20:00:53.654Z,99.90
2022-11-19T20:02:56.253Z,99.90
2022-11-19T20:05:25.128Z,99.90
2022-11-19T20:07:27.867Z,99.90
2022-11-19T20:09:30.518Z,99.90
2022-11-19T20:11:33.234Z,99.90
2022-11-19T20:13:36.887Z,99.90
2022-11-19T20:15:41.219Z,99.90
2022-11-19T20:17:43.789Z,99.90
2022-11-19T20:19:46.360Z,99.90
2022-11-19T20:21:48.929Z,99.90
2022-11-19T20:23:51.970Z,99.90
2022-11-19T20:26:04.537Z,99.90
2022-11-19T20:28:07.737Z,99.90
2022-11-19T20:30:10.938Z,99.90
2022-11-19T20:32:13.764Z,99.90
2022-11-19T20:34:20.439Z,99.90
2022-11-19T20:36:25.017Z,99.90
2022-11-19T20:38:27.738Z,99.90
2022-11-19T20:40:30.475Z,99.90
2022-11-19T20:42:52.358Z,99.90
2022-11-19T20:44:54.925Z,99.90
2022-11-19T20:47:07.132Z,99.90
2022-11-19T20:49:12.791Z,99.90
2022-11-19T20:51:21.505Z,99.90
2022-11-19T20:53:24.125Z,99.90
2022-11-19T20:55:26.674Z,99.90
2022-11-19T20:57:29.290Z,99.90
2022-11-19T20:59:31.993Z,99.90
2022-11-19T21:01:35.702Z,99.90
2022-11-19T21:03:39.274Z,99.90
2022-11-19T21:05:41.838Z,99.90
2022-11-19T21:07:44.461Z,99.90
2022-11-19T21:09:47.159Z,99.90
2022-11-19T21:11:49.902Z,99.90
2022-11-19T21:13:52.836Z,99.90
2022-11-19T21:15:57.001Z,99.90
2022-11-19T21:17:59.542Z,99.90
2022-11-19T21:20:02.111Z,99.90
2022-11-19T21:22:04.919Z,99.90
2022-11-19T21:24:08.159Z,99.90
2022-11-19T21:26:23.123Z,99.90
2022-11-19T21:28:25.748Z,99.90
2022-11-19T21:30:29.458Z,99.90
2022-11-19T21:32:32.019Z,99.90
2022-11-19T21:34:34.560Z,99.90
2022-11-19T21:36:37.681Z,99.90
2022-11-19T21:38:40.730Z,99.90
2022-11-19T21:40:43.311Z,99.90
2022-11-19T21:42:45.857Z,99.90
2022-11-19T21:44:48.447Z,99.90
2022-11-19T21:46:51.011Z,99.90
2022-11-19T21:48:54.088Z,99.90
2022-11-19T21:50:56.672Z,99.90
2022-11-19T21:52:59.309Z,99.90
2022-11-19T21:55:01.809Z,99.90
2022-11-19T21:57:04.453Z,99.90
2022-11-19T21:59:07.597Z,99.90
2022-11-19T22:01:11.251Z,99.90
2022-11-19T22:03:14.450Z,99.90
2022-11-19T22:05:17.144Z,99.90
2022-11-19T22:07:19.783Z,99.90
2022-11-19T22:09:22.812Z,99.90
2022-11-19T22:11:28.622Z,99.90
2022-11-19T22:13:31.257Z,99.90
2022-11-19T22:15:33.932Z,99.90
2022-11-19T22:17:37.263Z,99.90
2022-11-19T22:19:40.848Z,99.90
2022-11-19T22:21:43.889Z,99.90
2022-11-19T22:23:47.195Z,99.90
2022-11-19T22:25:49.767Z,99.90
2022-11-19T22:27:52.371Z,99.90
2022-11-19T22:29:56.734Z,99.90
2022-11-19T22:32:01.539Z,99.90
2022-11-19T22:34:04.148Z,99.90
2022-11-19T22:36:10.262Z,99.90
2022-11-19T22:38:13.502Z,99.90
2022-11-19T22:40:16.039Z,99.90
2022-11-19T22:42:18.677Z,99.90
2022-11-19T22:44:21.230Z,99.90
2022-11-19T22:46:33.845Z,99.90
2022-11-19T22:48:36.773Z,99.90
2022-11-19T22:50:43.028Z,99.90
2022-11-19T22:52:45.570Z,99.90
2022-11-19T22:54:48.229Z,99.90
2022-11-19T22:56:50.782Z,99.90
2022-11-19T22:58:54.067Z,99.90
2022-11-19T23:01:27.245Z,99.90
2022-11-19T23:03:29.778Z,99.90
2022-11-19T23:05:36.948Z,99.90
2022-11-19T23:07:39.909Z,99.90
2022-11-19T23:09:42.516Z,99.90
2022-11-19T23:12:03.350Z,99.90
2022-11-19T23:14:11.749Z,99.90
2022-11-19T23:16:18.436Z,99.90
2022-11-19T23:18:21.001Z,99.90
2022-11-19T23:20:23.564Z,99.90
2022-11-19T23:22:26.133Z,99.90
2022-11-19T23:24:28.649Z,99.90
2022-11-19T23:26:32.945Z,99.90
2022-11-19T23:28:37.312Z,99.90
2022-11-19T23:30:39.794Z,99.90
2022-11-19T23:32:42.369Z,99.90
2022-11-19T23:34:44.983Z,99.90
2022-11-19T23:36:47.553Z,99.90
2022-11-19T23:38:50.624Z,99.90
2022-11-19T23:41:03.466Z,99.90
2022-11-19T23:43:06.814Z,99.90
2022-11-19T23:45:10.265Z,99.90
2022-11-19T23:47:12.864Z,99.90
2022-11-19T23:49:15.428Z,99.90
2022-11-19T23:51:22.179Z,99.90
2022-11-19T23:53:24.779Z,99.90
2022-11-19T23:55:27.448Z,99.90
2022-11-19T23:57:30.055Z,99.90
2022-11-19T23:59:32.636Z,99.90
